Zoie — WDC8046 — position and weather

sailwx.info

Track history (hours):
 
Tides and Currents Weather Stations Pressure Air Temp Water Temp Dewpoint Dewpoint Depression Visibility Wind Speed Wind Dir Waves Ship Positions

Zoie

Owner: B & J CORPORATION, LAKE AUTHUR, LA. More information available from US FCC via Universal Licensing System and Coast Guard Vessel Documentation Center.

Last reported at 2018-May-20 00:29 UTC. Time now 2018-May-23 15:12 UTC.
Position N 29°56' W 093°03'.

Length 17 m.

Type: Towing. MMSI: 367080810.

Date/timePositionNaut miles runAvg speedWind from/ knotsBaromVisibWave heightAir tempDewpointWater temp
2018-May-20 00:29N 29°56' W 093°03'3 5.4
2018-May-20 00:01N 29°56' W 093°06'3 6.8
2018-May-19 23:30N 29°56' W 093°10'4 7.0
2018-May-19 23:00N 29°59' W 093°12'3 6.5
2018-May-19 22:30N 30°02' W 093°14'3 6.3
2018-May-19 22:00N 30°04' W 093°16'2 4.9
2018-May-19 21:31N 30°06' W 093°18'3 5.2
2018-May-19 21:01N 30°04' W 093°21'1 1.9
2018-May-19 20:31N 30°04' W 093°21'0 0.0
2018-May-19 20:01N 30°04' W 093°21'0 0.0
2018-May-19 19:31N 30°04' W 093°21'0 0.0
2018-May-19 19:01N 30°04' W 093°21'0 0.0
2018-May-19 18:31N 30°04' W 093°21'0 0.0
2018-May-19 18:00N 30°04' W 093°21'0 0.0
2018-May-19 17:30N 30°04' W 093°21'0 0.0
2018-May-19 17:01N 30°04' W 093°21'0 0.0
2018-May-19 16:31N 30°04' W 093°21'0 0.0
2018-May-19 16:01N 30°04' W 093°21'0 0.0
2018-May-19 15:30N 30°04' W 093°21'0 0.0
2018-May-19 15:00N 30°04' W 093°21'0 0.0
2018-May-19 14:31N 30°04' W 093°21'0 0.0
2018-May-19 14:01N 30°04' W 093°21'0 0.0
2018-May-19 13:30N 30°04' W 093°21'0 0.0
2018-May-19 13:01N 30°04' W 093°21'0 0.0
2018-May-19 12:31N 30°04' W 093°21'0 0.0
2018-May-19 12:00N 30°04' W 093°21'0 0.0
2018-May-19 11:31N 30°04' W 093°21'0 0.0
2018-May-19 10:58N 30°04' W 093°21'0 0.0
2018-May-19 10:31N 30°04' W 093°21'0 0.0
2018-May-19 10:00N 30°04' W 093°21'0 0.0
2018-May-19 09:31N 30°04' W 093°21'0 0.0
2018-May-19 09:01N 30°04' W 093°21'0 0.0
2018-May-19 08:31N 30°04' W 093°21'0 0.0
2018-May-19 08:01N 30°04' W 093°21'0 0.0
2018-May-19 07:31N 30°04' W 093°21'0 0.0
2018-May-19 07:00N 30°04' W 093°21'0 0.0
2018-May-19 06:31N 30°04' W 093°21'0 0.0
2018-May-19 06:01N 30°04' W 093°21'0 0.0
2018-May-19 05:31N 30°04' W 093°21'0 0.0
2018-May-19 05:00N 30°04' W 093°21'0 0.0
2018-May-19 04:30N 30°04' W 093°21'0 0.0
2018-May-19 04:01N 30°04' W 093°21'0 0.0
2018-May-19 03:31N 30°04' W 093°21'0 0.0
2018-May-19 03:01N 30°04' W 093°21'0 0.0
2018-May-19 02:31N 30°04' W 093°21'0 0.0
2018-May-19 02:01N 30°04' W 093°21'0 0.0
2018-May-19 01:31N 30°04' W 093°21'0 0.0
2018-May-19 00:58N 30°04' W 093°21'2 4.0
2018-May-19 00:31N 30°05' W 093°20'3 5.8
2018-May-19 00:01N 30°08' W 093°20'3 5.7
2018-May-18 23:29N 30°11' W 093°19'3 6.2
2018-May-18 23:01N 30°12' W 093°16'2 4.4
2018-May-18 22:30N 30°14' W 093°15'1 1.6
2018-May-18 22:00N 30°15' W 093°14'2 3.1
2018-May-18 21:31N 30°15' W 093°12'2 3.1
2018-May-18 21:00N 30°15' W 093°14'1 1.6
2018-May-18 20:30N 30°14' W 093°15'2 4.3
2018-May-18 20:00N 30°12' W 093°16'3 6.8
2018-May-18 19:31N 30°10' W 093°19'3 6.7
2018-May-18 19:01N 30°07' W 093°20'3 5.4
2018-May-18 18:30N 30°04' W 093°21'1 2.0
2018-May-18 18:01N 30°04' W 093°21'0 0.0
2018-May-18 17:31N 30°04' W 093°21'0 0.0
2018-May-18 17:01N 30°04' W 093°21'0 0.9
2018-May-18 16:30N 30°04' W 093°21'0 0.9
2018-May-18 16:01N 30°04' W 093°21'0 0.0
2018-May-18 15:31N 30°04' W 093°21'0 0.0
2018-May-18 15:00N 30°04' W 093°21'0 0.0
2018-May-18 14:31N 30°04' W 093°21'0 0.0
2018-May-18 14:00N 30°04' W 093°21'0 0.0
2018-May-18 13:31N 30°04' W 093°21'0 0.0
2018-May-18 13:00N 30°04' W 093°21'0 0.0
2018-May-18 12:31N 30°04' W 093°21'0 0.3
2018-May-18 12:01N 30°04' W 093°21'0 0.1
2018-May-18 11:30N 30°04' W 093°21'0 0.3
2018-May-18 11:00N 30°04' W 093°21'0 0.0
2018-May-18 10:31N 30°04' W 093°21'0 0.0
2018-May-18 10:01N 30°04' W 093°21'0 0.0
2018-May-18 09:31N 30°04' W 093°21'0 0.0
2018-May-18 09:00N 30°04' W 093°21'0 0.0
2018-May-18 08:30N 30°04' W 093°21'0 0.0
2018-May-18 08:01N 30°04' W 093°21'0 0.0
2018-May-18 07:31N 30°04' W 093°21'0 0.0
2018-May-18 07:01N 30°04' W 093°21'0 0.0
2018-May-18 06:31N 30°04' W 093°21'0 0.0
2018-May-18 06:01N 30°04' W 093°21'0 0.0
2018-May-18 05:31N 30°04' W 093°21'0 0.0
2018-May-18 05:01N 30°04' W 093°21'0 0.0
2018-May-18 04:31N 30°04' W 093°21'0 0.0
2018-May-18 04:01N 30°04' W 093°21'0 0.0
2018-May-18 03:30N 30°04' W 093°21'0 0.0
2018-May-18 03:01N 30°04' W 093°21'0 0.0
2018-May-18 02:31N 30°04' W 093°21'0 0.0
2018-May-18 02:01N 30°04' W 093°21'0 0.0
2018-May-18 01:31N 30°04' W 093°21'0 0.0
2018-May-18 00:59N 30°04' W 093°21'0 0.0
2018-May-18 00:31N 30°04' W 093°21'0 0.1
2018-May-18 00:01N 30°04' W 093°21'1 2.7
2018-May-17 23:31N 30°05' W 093°20'2 4.7
2018-May-17 23:01N 30°07' W 093°20'3 5.9
2018-May-17 22:30N 30°10' W 093°19'3 6.1
2018-May-17 22:00N 30°12' W 093°17'2 4.9
2018-May-17 21:31N 30°13' W 093°15'1 2.4
2018-May-17 21:01N 30°15' W 093°15'0 0.8
2018-May-17 20:30N 30°15' W 093°15'1 2.1
2018-May-17 20:01N 30°15' W 093°14'1 2.6
2018-May-17 19:31N 30°15' W 093°12'1 2.0
2018-May-17 19:00N 30°15' W 093°13'2 3.9
2018-May-17 18:30N 30°13' W 093°15'3 5.9
2018-May-17 18:01N 30°12' W 093°17'3 6.9
2018-May-17 17:31N 30°09' W 093°20'3 6.5
2018-May-17 17:01N 30°06' W 093°20'3 5.2
2018-May-17 16:31N 30°04' W 093°21'0 0.7
2018-May-17 16:01N 30°04' W 093°21'0 0.0
2018-May-17 15:30N 30°04' W 093°21'0 0.0
2018-May-17 15:01N 30°04' W 093°21'0 0.0
2018-May-17 14:31N 30°04' W 093°21'0 0.0
2018-May-17 14:00N 30°04' W 093°21'2 3.2
2018-May-17 13:31N 30°05' W 093°20'2 4.3
2018-May-17 13:01N 30°05' W 093°18'1 1.9
2018-May-17 12:31N 30°05' W 093°17'3 5.5
2018-May-17 12:00N 30°02' W 093°16'3 5.5
2018-May-17 11:31N 30°00' W 093°14'3 6.1
2018-May-17 11:00N 29°58' W 093°11'1 2.2
2018-May-17 10:31N 29°57' W 093°10'0 0.3
2018-May-17 10:01N 29°57' W 093°10'1 1.2
2018-May-17 09:30N 29°57' W 093°10'0 0.4
2018-May-17 09:00N 29°57' W 093°10'0 0.8
2018-May-17 08:30N 29°56' W 093°10'0 0.4
2018-May-17 08:01N 29°57' W 093°10'1 1.2
2018-May-17 07:29N 29°56' W 093°09'3 5.6
2018-May-17 07:00N 29°56' W 093°06'3 5.4
2018-May-17 06:30N 29°56' W 093°03'3 5.3
2018-May-17 06:00N 29°56' W 093°00'3 4.9
2018-May-17 05:28N 29°56' W 092°57'3 6.2
2018-May-17 05:00N 29°57' W 092°54'3 6.7
2018-May-17 04:30N 29°58' W 092°50'2 4.7
2018-May-17 04:00N 29°59' W 092°48'3 4.8
2018-May-17 03:28N 30°00' W 092°45'2 4.5
2018-May-17 02:58N 30°02' W 092°45'4 6.3
2018-May-17 02:24N 30°04' W 092°41'10 0.3
2018-May-15 12:16N 30°12' W 092°35'1 2.2
2018-May-15 12:00N 30°12' W 092°35'2 1.0
2018-May-15 10:20N 30°10' W 092°37'6 3.2
2018-May-15 08:24N 30°04' W 092°38'1 2.6
2018-May-15 07:59N 30°04' W 092°40'2 3.7
2018-May-15 07:30N 30°04' W 092°41'2 3.6
2018-May-15 06:59N 30°03' W 092°43'2 3.5
2018-May-15 06:30N 30°02' W 092°45'1 2.1
2018-May-15 05:53N 30°01' W 092°45'1 3.5
2018-May-15 05:30N 29°60' W 092°46'1 2.4
2018-May-15 05:00N 29°60' W 092°47'1 3.0
2018-May-15 04:30N 29°58' W 092°48'2 4.5
2018-May-15 04:00N 29°58' W 092°51'2 4.6
2018-May-15 03:30N 29°57' W 092°53'2 4.5
2018-May-15 03:00N 29°56' W 092°56'2 4.5
2018-May-15 02:30N 29°56' W 092°58'2 4.7
2018-May-15 02:00N 29°56' W 093°01'3 5.1
2018-May-15 01:30N 29°56' W 093°04'2 4.8
2018-May-15 01:00N 29°56' W 093°07'3 5.2
2018-May-15 00:30N 29°56' W 093°10'2 4.6
2018-May-15 00:00N 29°58' W 093°11'3 5.2
2018-May-14 23:30N 29°60' W 093°13'2 4.6
2018-May-14 22:59N 30°02' W 093°15'2 4.6
2018-May-14 22:30N 30°04' W 093°16'2 4.1
2018-May-14 22:00N 30°05' W 093°18'1 1.2
2018-May-14 21:30N 30°06' W 093°18'0 0.1
2018-May-14 21:00N 30°06' W 093°18'0 0.0
2018-May-14 20:30N 30°06' W 093°18'0 0.0
2018-May-14 20:00N 30°06' W 093°18'0 0.0
2018-May-14 19:30N 30°06' W 093°18'0 0.0
2018-May-14 18:59N 30°06' W 093°18'0 0.0
2018-May-14 18:30N 30°06' W 093°18'0 0.0
2018-May-14 18:00N 30°06' W 093°18'0 0.0
2018-May-14 17:06N 30°06' W 093°18'0 0.1
2018-May-14 17:00N 30°06' W 093°18'1 1.2
2018-May-14 16:30N 30°06' W 093°19'2 4.9
2018-May-14 16:00N 30°04' W 093°21'1 1.6
2018-May-14 15:30N 30°04' W 093°21'0 0.1
2018-May-14 14:59N 30°04' W 093°21'0 0.1
2018-May-14 14:30N 30°04' W 093°21'0 0.0
2018-May-14 14:00N 30°04' W 093°21'0 0.0
2018-May-14 13:30N 30°04' W 093°21'0 0.0
2018-May-14 12:56N 30°04' W 093°21'0 0.0
2018-May-14 12:30N 30°04' W 093°21'0 0.0
2018-May-14 12:00N 30°04' W 093°21'0 0.0
2018-May-14 11:30N 30°04' W 093°21'0 0.0
2018-May-14 11:00N 30°04' W 093°21'0 0.0
2018-May-14 10:30N 30°04' W 093°21'0 0.0
2018-May-14 10:00N 30°04' W 093°21'0 0.0
2018-May-14 09:30N 30°04' W 093°21'0 0.0
2018-May-14 09:00N 30°04' W 093°21'0 0.0
2018-May-14 08:30N 30°04' W 093°21'0 0.0
2018-May-14 08:00N 30°04' W 093°21'0 0.2
2018-May-14 07:30N 30°04' W 093°21'0 0.2
2018-May-14 07:00N 30°04' W 093°21'0 0.0
2018-May-14 06:30N 30°04' W 093°21'0 0.0
2018-May-14 06:00N 30°04' W 093°21'0 0.0
2018-May-14 05:30N 30°04' W 093°21'0 0.0
2018-May-14 05:00N 30°04' W 093°21'0 0.0
2018-May-14 04:30N 30°04' W 093°21'0 0.0
2018-May-14 04:00N 30°04' W 093°21'0 0.0
2018-May-14 03:30N 30°04' W 093°21'0 0.0
2018-May-14 03:00N 30°04' W 093°21'0 0.1
2018-May-14 02:30N 30°04' W 093°21'0 0.1
2018-May-14 02:00N 30°04' W 093°21'0 0.0
2018-May-14 01:30N 30°04' W 093°21'0 0.9
2018-May-14 01:00N 30°04' W 093°21'2 3.3
2018-May-14 00:30N 30°05' W 093°20'2 3.3
2018-May-14 00:00N 30°07' W 093°20'2 3.5
2018-May-13 23:30N 30°09' W 093°20'2 3.0
2018-May-13 23:00N 30°10' W 093°19'2 3.1
2018-May-13 22:30N 30°11' W 093°18'2 3.4
2018-May-13 22:00N 30°12' W 093°17'1 2.9
2018-May-13 21:30N 30°13' W 093°16'1 1.1
2018-May-13 21:00N 30°14' W 093°15'0 0.0
2018-May-13 20:30N 30°14' W 093°15'0 0.0
2018-May-13 20:00N 30°14' W 093°15'0 0.0
2018-May-13 19:30N 30°14' W 093°15'0 0.0
2018-May-13 19:00N 30°14' W 093°15'0 0.0
2018-May-13 18:30N 30°14' W 093°15'0 0.0
2018-May-13 18:00N 30°14' W 093°15'0 0.0
2018-May-13 17:30N 30°14' W 093°15'0 0.0
2018-May-13 16:58N 30°14' W 093°15'0 0.0
2018-May-13 16:30N 30°14' W 093°15'0 0.0
2018-May-13 16:00N 30°14' W 093°15'0 0.0
2018-May-13 15:27N 30°14' W 093°15'0 0.0
2018-May-13 15:00N 30°14' W 093°15'0 0.0
2018-May-13 14:30N 30°14' W 093°15'0 0.0
2018-May-13 14:00N 30°14' W 093°15'0 0.0
2018-May-13 13:30N 30°14' W 093°15'0 0.3
2018-May-13 13:00N 30°14' W 093°15'2 4.3
2018-May-13 12:30N 30°12' W 093°17'3 5.0
2018-May-13 12:00N 30°10' W 093°19'2 4.8
2018-May-13 11:30N 30°08' W 093°20'2 4.6
2018-May-13 11:00N 30°06' W 093°20'2 3.7
2018-May-13 10:30N 30°04' W 093°21'1 2.0
2018-May-13 10:00N 30°04' W 093°21'0 0.3
2018-May-13 09:30N 30°04' W 093°21'0 0.0
2018-May-13 09:00N 30°04' W 093°21'0 0.0
2018-May-13 08:30N 30°04' W 093°21'0 0.0
2018-May-13 08:00N 30°04' W 093°21'0 0.0
2018-May-13 07:29N 30°04' W 093°21'0 0.0
2018-May-13 07:00N 30°04' W 093°21'0 0.0
2018-May-13 06:29N 30°04' W 093°21'0 0.0
2018-May-13 06:00N 30°04' W 093°21'0 0.0
2018-May-13 05:29N 30°04' W 093°21'0 0.0
2018-May-13 05:00N 30°04' W 093°21'0 0.0
2018-May-13 04:30N 30°04' W 093°21'0 0.0
2018-May-13 04:00N 30°04' W 093°21'0 0.0
2018-May-13 03:30N 30°04' W 093°21'0 0.0
2018-May-13 03:00N 30°04' W 093°21'0 0.0
2018-May-13 02:30N 30°04' W 093°21'0 0.0
2018-May-13 02:00N 30°04' W 093°21'0 0.0
2018-May-13 01:30N 30°04' W 093°21'0 0.0
2018-May-13 01:00N 30°04' W 093°21'0 0.0
2018-May-13 00:30N 30°04' W 093°21'0 0.0
2018-May-13 00:00N 30°04' W 093°21'0 0.4
2018-May-12 23:30N 30°04' W 093°22'0 0.3
2018-May-12 23:00N 30°04' W 093°22'0 0.8
2018-May-12 22:30N 30°04' W 093°21'0 0.0
2018-May-12 22:00N 30°04' W 093°21'0 0.0
2018-May-12 21:30N 30°04' W 093°21'0 0.3
2018-May-12 21:00N 30°04' W 093°21'0 0.2
2018-May-12 20:30N 30°04' W 093°21'0 0.4
2018-May-12 20:00N 30°04' W 093°21'0 0.1
2018-May-12 19:30N 30°04' W 093°21'0 0.0
2018-May-12 19:00N 30°04' W 093°21'0 0.0
2018-May-12 18:30N 30°04' W 093°21'0 0.0
2018-May-12 18:00N 30°04' W 093°21'0 0.0
2018-May-12 17:30N 30°04' W 093°21'0 0.0
2018-May-12 17:00N 30°04' W 093°21'0 0.1
2018-May-12 16:30N 30°04' W 093°21'0 0.0
2018-May-12 16:00N 30°04' W 093°21'0 0.1
2018-May-12 15:30N 30°04' W 093°21'0 0.0
2018-May-12 15:00N 30°04' W 093°21'0 0.0
2018-May-12 14:30N 30°04' W 093°21'0 0.0
2018-May-12 14:00N 30°04' W 093°21'0 0.0
2018-May-12 13:29N 30°04' W 093°21'0 0.0
2018-May-12 13:00N 30°04' W 093°21'0 0.0
2018-May-12 12:30N 30°04' W 093°21'0 0.5
2018-May-12 12:00N 30°04' W 093°21'2 4.3
2018-May-12 11:30N 30°05' W 093°20'4 5.2
2018-May-12 10:43N 30°10' W 093°19'2 5.6
2018-May-12 10:25N 30°11' W 093°18'2 5.2
2018-May-12 10:00N 30°12' W 093°17'1 1.6
2018-May-12 09:24N 30°13' W 093°17'1 3.0
2018-May-12 09:00N 30°12' W 093°17'3 6.2
2018-May-12 08:30N 30°10' W 093°19'3 5.9
2018-May-12 08:00N 30°07' W 093°20'3 5.3
2018-May-12 07:30N 30°04' W 093°20'1 2.2
2018-May-12 07:00N 30°04' W 093°21'0 0.0
2018-May-12 06:30N 30°04' W 093°21'0 0.0
2018-May-12 06:00N 30°04' W 093°21'0 0.0
2018-May-12 05:30N 30°04' W 093°21'0 0.0
2018-May-12 05:00N 30°04' W 093°21'0 0.0
2018-May-12 04:30N 30°04' W 093°21'0 0.0
2018-May-12 04:00N 30°04' W 093°21'0 0.0
2018-May-12 03:30N 30°04' W 093°21'0 0.0
2018-May-12 03:00N 30°04' W 093°21'0 0.0
2018-May-12 02:30N 30°04' W 093°21'0 0.0
2018-May-12 02:00N 30°04' W 093°21'0 0.0
2018-May-12 01:30N 30°04' W 093°21'0 0.0
2018-May-12 01:00N 30°04' W 093°21'0 0.0
2018-May-12 00:30N 30°04' W 093°21'0 0.0
2018-May-11 23:59N 30°04' W 093°21'0 0.0
2018-May-11 23:30N 30°04' W 093°21'0 0.0
2018-May-11 23:00N 30°04' W 093°21'0 0.0
2018-May-11 22:30N 30°04' W 093°21'0 0.0
2018-May-11 22:00N 30°04' W 093°21'0 0.0
2018-May-11 21:30N 30°04' W 093°21'0 0.0
2018-May-11 21:00N 30°04' W 093°21'0 0.0
2018-May-11 20:30N 30°04' W 093°21'0 0.0
2018-May-11 20:00N 30°04' W 093°21'0 0.0
2018-May-11 19:30N 30°04' W 093°21'0 0.0
2018-May-11 19:00N 30°04' W 093°21'0 0.0
2018-May-11 18:30N 30°04' W 093°21'0 0.0
2018-May-11 18:00N 30°04' W 093°21'0 0.0
2018-May-11 17:30N 30°04' W 093°21'0 0.0
2018-May-11 17:00N 30°04' W 093°21'0 0.0
2018-May-11 16:30N 30°04' W 093°21'0 0.0
2018-May-11 16:00N 30°04' W 093°21'0 0.0
2018-May-11 15:30N 30°04' W 093°21'0 0.0
2018-May-11 15:00N 30°04' W 093°21'0 0.0
2018-May-11 14:29N 30°04' W 093°21'0 0.0
2018-May-11 14:00N 30°04' W 093°21'0 0.0
2018-May-11 13:30N 30°04' W 093°21'0 0.0
2018-May-11 13:00N 30°04' W 093°21'0 0.0
2018-May-11 12:30N 30°04' W 093°21'0 0.0
2018-May-11 12:00N 30°04' W 093°21'0 0.0
2018-May-11 11:30N 30°04' W 093°21'0 0.0
2018-May-11 11:00N 30°04' W 093°21'0 0.0
2018-May-11 10:28N 30°04' W 093°21'0 0.0
2018-May-11 10:00N 30°04' W 093°21'0 0.0
2018-May-11 09:30N 30°04' W 093°21'0 0.0
2018-May-11 09:00N 30°04' W 093°21'0 0.0
2018-May-11 08:30N 30°04' W 093°21'0 0.0
2018-May-11 08:00N 30°04' W 093°21'0 0.0
2018-May-11 07:30N 30°04' W 093°21'0 0.0
2018-May-11 07:00N 30°04' W 093°21'0 0.0
2018-May-11 06:30N 30°04' W 093°21'0 0.0
2018-May-11 06:00N 30°04' W 093°21'0 0.0
2018-May-11 05:30N 30°04' W 093°21'0 0.0
2018-May-11 05:00N 30°04' W 093°21'0 0.0
2018-May-11 04:30N 30°04' W 093°21'0 0.0
2018-May-11 04:00N 30°04' W 093°21'0 0.0
2018-May-11 03:30N 30°04' W 093°21'0 0.0
2018-May-11 02:59N 30°04' W 093°21'0 0.0
2018-May-11 02:30N 30°04' W 093°21'0 0.0
2018-May-11 02:00N 30°04' W 093°21'0 0.0
2018-May-11 01:30N 30°04' W 093°21'0 0.0
2018-May-11 01:00N 30°04' W 093°21'0 0.0
2018-May-11 00:29N 30°04' W 093°21'0 0.0
2018-May-11 00:00N 30°04' W 093°21'0 0.0
2018-May-10 23:30N 30°04' W 093°21'0 0.0
2018-May-10 23:00N 30°04' W 093°21'0 0.0
2018-May-10 22:31N 30°04' W 093°21'0 0.0
2018-May-10 22:01N 30°04' W 093°21'0 0.0
2018-May-10 21:30N 30°04' W 093°21'0 0.0
2018-May-10 21:01N 30°04' W 093°21'0 0.0
2018-May-10 20:31N 30°04' W 093°21'0 0.0
2018-May-10 20:01N 30°04' W 093°21'0 0.0
2018-May-10 19:31N 30°04' W 093°21'0 0.0
2018-May-10 19:01N 30°04' W 093°21'1 1.4
2018-May-10 18:30N 30°04' W 093°21'2 4.5
2018-May-10 18:01N 30°06' W 093°20'3 5.7
2018-May-10 17:31N 30°09' W 093°20'3 5.6
2018-May-10 17:01N 30°11' W 093°18'3 5.5
2018-May-10 16:31N 30°13' W 093°16'1 1.8
2018-May-10 15:58N 30°14' W 093°15'0 0.0
2018-May-10 15:27N 30°14' W 093°15'0 0.0
2018-May-10 15:01N 30°14' W 093°15'0 0.0
2018-May-10 14:31N 30°14' W 093°15'0 0.0
2018-May-10 14:00N 30°14' W 093°15'0 0.0
2018-May-10 13:30N 30°14' W 093°15'0 0.0
2018-May-10 12:59N 30°14' W 093°15'0 0.0
2018-May-10 12:30N 30°14' W 093°15'0 0.0
2018-May-10 12:00N 30°14' W 093°15'0 0.0
2018-May-10 11:31N 30°14' W 093°15'0 0.0
2018-May-10 11:00N 30°14' W 093°15'0 0.0
2018-May-10 10:29N 30°14' W 093°15'0 0.0
2018-May-10 10:01N 30°14' W 093°15'0 0.0
2018-May-10 09:30N 30°14' W 093°15'0 0.0
2018-May-10 08:58N 30°14' W 093°15'0 0.0
2018-May-10 08:31N 30°14' W 093°15'0 0.0
2018-May-10 07:59N 30°14' W 093°15'0 0.0
2018-May-10 07:31N 30°14' W 093°15'0 0.0
2018-May-10 07:01N 30°14' W 093°15'0 0.0
2018-May-10 06:30N 30°14' W 093°15'0 0.0
2018-May-10 06:00N 30°14' W 093°15'0 0.0
2018-May-10 05:30N 30°14' W 093°15'2 4.4
2018-May-10 05:00N 30°12' W 093°17'3 6.5
2018-May-10 04:30N 30°10' W 093°19'3 6.2
2018-May-10 04:00N 30°07' W 093°20'3 5.6
2018-May-10 03:31N 30°04' W 093°21'1 1.4
2018-May-10 03:01N 30°04' W 093°22'0 0.0
2018-May-10 02:31N 30°04' W 093°22'0 0.4
2018-May-10 02:01N 30°04' W 093°21'0 0.0
2018-May-10 01:31N 30°04' W 093°21'0 0.0
2018-May-10 01:01N 30°04' W 093°21'0 0.0
2018-May-10 00:30N 30°04' W 093°21'  
Track history (hours):
 
Tides and Currents Weather Stations Pressure Air Temp Water Temp Dewpoint Dewpoint Depression Visibility Wind Speed Wind Dir Waves Ship Positions

Zoie

Owner: B & J CORPORATION, LAKE AUTHUR, LA. More information available from US FCC via Universal Licensing System and Coast Guard Vessel Documentation Center.

Last reported at 2018-May-20 00:29 UTC. Time now 2018-May-23 15:12 UTC.
Position N 29°56' W 093°03'.

Length 17 m.

Type: Towing. MMSI: 367080810.

Date/timePositionNaut miles runAvg speedWind from/ knotsBaromVisibWave heightAir tempDewpointWater temp
2018-May-20 00:29N 29°56' W 093°03'3 5.4
2018-May-20 00:01N 29°56' W 093°06'3 6.8
2018-May-19 23:30N 29°56' W 093°10'4 7.0
2018-May-19 23:00N 29°59' W 093°12'3 6.5
2018-May-19 22:30N 30°02' W 093°14'3 6.3
2018-May-19 22:00N 30°04' W 093°16'2 4.9
2018-May-19 21:31N 30°06' W 093°18'3 5.2
2018-May-19 21:01N 30°04' W 093°21'1 1.9
2018-May-19 20:31N 30°04' W 093°21'0 0.0
2018-May-19 20:01N 30°04' W 093°21'0 0.0
2018-May-19 19:31N 30°04' W 093°21'0 0.0
2018-May-19 19:01N 30°04' W 093°21'0 0.0
2018-May-19 18:31N 30°04' W 093°21'0 0.0
2018-May-19 18:00N 30°04' W 093°21'0 0.0
2018-May-19 17:30N 30°04' W 093°21'0 0.0
2018-May-19 17:01N 30°04' W 093°21'0 0.0
2018-May-19 16:31N 30°04' W 093°21'0 0.0
2018-May-19 16:01N 30°04' W 093°21'0 0.0
2018-May-19 15:30N 30°04' W 093°21'0 0.0
2018-May-19 15:00N 30°04' W 093°21'0 0.0
2018-May-19 14:31N 30°04' W 093°21'0 0.0
2018-May-19 14:01N 30°04' W 093°21'0 0.0
2018-May-19 13:30N 30°04' W 093°21'0 0.0
2018-May-19 13:01N 30°04' W 093°21'0 0.0
2018-May-19 12:31N 30°04' W 093°21'0 0.0
2018-May-19 12:00N 30°04' W 093°21'0 0.0
2018-May-19 11:31N 30°04' W 093°21'0 0.0
2018-May-19 10:58N 30°04' W 093°21'0 0.0
2018-May-19 10:31N 30°04' W 093°21'0 0.0
2018-May-19 10:00N 30°04' W 093°21'0 0.0
2018-May-19 09:31N 30°04' W 093°21'0 0.0
2018-May-19 09:01N 30°04' W 093°21'0 0.0
2018-May-19 08:31N 30°04' W 093°21'0 0.0
2018-May-19 08:01N 30°04' W 093°21'0 0.0
2018-May-19 07:31N 30°04' W 093°21'0 0.0
2018-May-19 07:00N 30°04' W 093°21'0 0.0
2018-May-19 06:31N 30°04' W 093°21'0 0.0
2018-May-19 06:01N 30°04' W 093°21'0 0.0
2018-May-19 05:31N 30°04' W 093°21'0 0.0
2018-May-19 05:00N 30°04' W 093°21'0 0.0
2018-May-19 04:30N 30°04' W 093°21'0 0.0
2018-May-19 04:01N 30°04' W 093°21'0 0.0
2018-May-19 03:31N 30°04' W 093°21'0 0.0
2018-May-19 03:01N 30°04' W 093°21'0 0.0
2018-May-19 02:31N 30°04' W 093°21'0 0.0
2018-May-19 02:01N 30°04' W 093°21'0 0.0
2018-May-19 01:31N 30°04' W 093°21'0 0.0
2018-May-19 00:58N 30°04' W 093°21'2 4.0
2018-May-19 00:31N 30°05' W 093°20'3 5.8
2018-May-19 00:01N 30°08' W 093°20'3 5.7
2018-May-18 23:29N 30°11' W 093°19'3 6.2
2018-May-18 23:01N 30°12' W 093°16'2 4.4
2018-May-18 22:30N 30°14' W 093°15'1 1.6
2018-May-18 22:00N 30°15' W 093°14'2 3.1
2018-May-18 21:31N 30°15' W 093°12'2 3.1
2018-May-18 21:00N 30°15' W 093°14'1 1.6
2018-May-18 20:30N 30°14' W 093°15'2 4.3
2018-May-18 20:00N 30°12' W 093°16'3 6.8
2018-May-18 19:31N 30°10' W 093°19'3 6.7
2018-May-18 19:01N 30°07' W 093°20'3 5.4
2018-May-18 18:30N 30°04' W 093°21'1 2.0
2018-May-18 18:01N 30°04' W 093°21'0 0.0
2018-May-18 17:31N 30°04' W 093°21'0 0.0
2018-May-18 17:01N 30°04' W 093°21'0 0.9
2018-May-18 16:30N 30°04' W 093°21'0 0.9
2018-May-18 16:01N 30°04' W 093°21'0 0.0
2018-May-18 15:31N 30°04' W 093°21'0 0.0
2018-May-18 15:00N 30°04' W 093°21'0 0.0
2018-May-18 14:31N 30°04' W 093°21'0 0.0
2018-May-18 14:00N 30°04' W 093°21'0 0.0
2018-May-18 13:31N 30°04' W 093°21'0 0.0
2018-May-18 13:00N 30°04' W 093°21'0 0.0
2018-May-18 12:31N 30°04' W 093°21'0 0.3
2018-May-18 12:01N 30°04' W 093°21'0 0.1
2018-May-18 11:30N 30°04' W 093°21'0 0.3
2018-May-18 11:00N 30°04' W 093°21'0 0.0
2018-May-18 10:31N 30°04' W 093°21'0 0.0
2018-May-18 10:01N 30°04' W 093°21'0 0.0
2018-May-18 09:31N 30°04' W 093°21'0 0.0
2018-May-18 09:00N 30°04' W 093°21'0 0.0
2018-May-18 08:30N 30°04' W 093°21'0 0.0
2018-May-18 08:01N 30°04' W 093°21'0 0.0
2018-May-18 07:31N 30°04' W 093°21'0 0.0
2018-May-18 07:01N 30°04' W 093°21'0 0.0
2018-May-18 06:31N 30°04' W 093°21'0 0.0
2018-May-18 06:01N 30°04' W 093°21'0 0.0
2018-May-18 05:31N 30°04' W 093°21'0 0.0
2018-May-18 05:01N 30°04' W 093°21'0 0.0
2018-May-18 04:31N 30°04' W 093°21'0 0.0
2018-May-18 04:01N 30°04' W 093°21'0 0.0
2018-May-18 03:30N 30°04' W 093°21'0 0.0
2018-May-18 03:01N 30°04' W 093°21'0 0.0
2018-May-18 02:31N 30°04' W 093°21'0 0.0
2018-May-18 02:01N 30°04' W 093°21'0 0.0
2018-May-18 01:31N 30°04' W 093°21'0 0.0
2018-May-18 00:59N 30°04' W 093°21'0 0.0
2018-May-18 00:31N 30°04' W 093°21'0 0.1
2018-May-18 00:01N 30°04' W 093°21'1 2.7
2018-May-17 23:31N 30°05' W 093°20'2 4.7
2018-May-17 23:01N 30°07' W 093°20'3 5.9
2018-May-17 22:30N 30°10' W 093°19'3 6.1
2018-May-17 22:00N 30°12' W 093°17'2 4.9
2018-May-17 21:31N 30°13' W 093°15'1 2.4
2018-May-17 21:01N 30°15' W 093°15'0 0.8
2018-May-17 20:30N 30°15' W 093°15'1 2.1
2018-May-17 20:01N 30°15' W 093°14'1 2.6
2018-May-17 19:31N 30°15' W 093°12'1 2.0
2018-May-17 19:00N 30°15' W 093°13'2 3.9
2018-May-17 18:30N 30°13' W 093°15'3 5.9
2018-May-17 18:01N 30°12' W 093°17'3 6.9
2018-May-17 17:31N 30°09' W 093°20'3 6.5
2018-May-17 17:01N 30°06' W 093°20'3 5.2
2018-May-17 16:31N 30°04' W 093°21'0 0.7
2018-May-17 16:01N 30°04' W 093°21'0 0.0
2018-May-17 15:30N 30°04' W 093°21'0 0.0
2018-May-17 15:01N 30°04' W 093°21'0 0.0
2018-May-17 14:31N 30°04' W 093°21'0 0.0
2018-May-17 14:00N 30°04' W 093°21'2 3.2
2018-May-17 13:31N 30°05' W 093°20'2 4.3
2018-May-17 13:01N 30°05' W 093°18'1 1.9
2018-May-17 12:31N 30°05' W 093°17'3 5.5
2018-May-17 12:00N 30°02' W 093°16'3 5.5
2018-May-17 11:31N 30°00' W 093°14'3 6.1
2018-May-17 11:00N 29°58' W 093°11'1 2.2
2018-May-17 10:31N 29°57' W 093°10'0 0.3
2018-May-17 10:01N 29°57' W 093°10'1 1.2
2018-May-17 09:30N 29°57' W 093°10'0 0.4
2018-May-17 09:00N 29°57' W 093°10'0 0.8
2018-May-17 08:30N 29°56' W 093°10'0 0.4
2018-May-17 08:01N 29°57' W 093°10'1 1.2
2018-May-17 07:29N 29°56' W 093°09'3 5.6
2018-May-17 07:00N 29°56' W 093°06'3 5.4
2018-May-17 06:30N 29°56' W 093°03'3 5.3
2018-May-17 06:00N 29°56' W 093°00'3 4.9
2018-May-17 05:28N 29°56' W 092°57'3 6.2
2018-May-17 05:00N 29°57' W 092°54'3 6.7
2018-May-17 04:30N 29°58' W 092°50'2 4.7
2018-May-17 04:00N 29°59' W 092°48'3 4.8
2018-May-17 03:28N 30°00' W 092°45'2 4.5
2018-May-17 02:58N 30°02' W 092°45'4 6.3
2018-May-17 02:24N 30°04' W 092°41'10 0.3
2018-May-15 12:16N 30°12' W 092°35'1 2.2
2018-May-15 12:00N 30°12' W 092°35'2 1.0
2018-May-15 10:20N 30°10' W 092°37'6 3.2
2018-May-15 08:24N 30°04' W 092°38'1 2.6
2018-May-15 07:59N 30°04' W 092°40'2 3.7
2018-May-15 07:30N 30°04' W 092°41'2 3.6
2018-May-15 06:59N 30°03' W 092°43'2 3.5
2018-May-15 06:30N 30°02' W 092°45'1 2.1
2018-May-15 05:53N 30°01' W 092°45'1 3.5
2018-May-15 05:30N 29°60' W 092°46'1 2.4
2018-May-15 05:00N 29°60' W 092°47'1 3.0
2018-May-15 04:30N 29°58' W 092°48'2 4.5
2018-May-15 04:00N 29°58' W 092°51'2 4.6
2018-May-15 03:30N 29°57' W 092°53'2 4.5
2018-May-15 03:00N 29°56' W 092°56'2 4.5
2018-May-15 02:30N 29°56' W 092°58'2 4.7
2018-May-15 02:00N 29°56' W 093°01'3 5.1
2018-May-15 01:30N 29°56' W 093°04'2 4.8
2018-May-15 01:00N 29°56' W 093°07'3 5.2
2018-May-15 00:30N 29°56' W 093°10'2 4.6
2018-May-15 00:00N 29°58' W 093°11'3 5.2
2018-May-14 23:30N 29°60' W 093°13'2 4.6
2018-May-14 22:59N 30°02' W 093°15'2 4.6
2018-May-14 22:30N 30°04' W 093°16'2 4.1
2018-May-14 22:00N 30°05' W 093°18'1 1.2
2018-May-14 21:30N 30°06' W 093°18'0 0.1
2018-May-14 21:00N 30°06' W 093°18'0 0.0
2018-May-14 20:30N 30°06' W 093°18'0 0.0
2018-May-14 20:00N 30°06' W 093°18'0 0.0
2018-May-14 19:30N 30°06' W 093°18'0 0.0
2018-May-14 18:59N 30°06' W 093°18'0 0.0
2018-May-14 18:30N 30°06' W 093°18'0 0.0
2018-May-14 18:00N 30°06' W 093°18'0 0.0
2018-May-14 17:06N 30°06' W 093°18'0 0.1
2018-May-14 17:00N 30°06' W 093°18'1 1.2
2018-May-14 16:30N 30°06' W 093°19'2 4.9
2018-May-14 16:00N 30°04' W 093°21'1 1.6
2018-May-14 15:30N 30°04' W 093°21'0 0.1
2018-May-14 14:59N 30°04' W 093°21'0 0.1
2018-May-14 14:30N 30°04' W 093°21'0 0.0
2018-May-14 14:00N 30°04' W 093°21'0 0.0
2018-May-14 13:30N 30°04' W 093°21'0 0.0
2018-May-14 12:56N 30°04' W 093°21'0 0.0
2018-May-14 12:30N 30°04' W 093°21'0 0.0
2018-May-14 12:00N 30°04' W 093°21'0 0.0
2018-May-14 11:30N 30°04' W 093°21'0 0.0
2018-May-14 11:00N 30°04' W 093°21'0 0.0
2018-May-14 10:30N 30°04' W 093°21'0 0.0
2018-May-14 10:00N 30°04' W 093°21'0 0.0
2018-May-14 09:30N 30°04' W 093°21'0 0.0
2018-May-14 09:00N 30°04' W 093°21'0 0.0
2018-May-14 08:30N 30°04' W 093°21'0 0.0
2018-May-14 08:00N 30°04' W 093°21'0 0.2
2018-May-14 07:30N 30°04' W 093°21'0 0.2
2018-May-14 07:00N 30°04' W 093°21'0 0.0
2018-May-14 06:30N 30°04' W 093°21'0 0.0
2018-May-14 06:00N 30°04' W 093°21'0 0.0
2018-May-14 05:30N 30°04' W 093°21'0 0.0
2018-May-14 05:00N 30°04' W 093°21'0 0.0
2018-May-14 04:30N 30°04' W 093°21'0 0.0
2018-May-14 04:00N 30°04' W 093°21'0 0.0
2018-May-14 03:30N 30°04' W 093°21'0 0.0
2018-May-14 03:00N 30°04' W 093°21'0 0.1
2018-May-14 02:30N 30°04' W 093°21'0 0.1
2018-May-14 02:00N 30°04' W 093°21'0 0.0
2018-May-14 01:30N 30°04' W 093°21'0 0.9
2018-May-14 01:00N 30°04' W 093°21'2 3.3
2018-May-14 00:30N 30°05' W 093°20'2 3.3
2018-May-14 00:00N 30°07' W 093°20'2 3.5
2018-May-13 23:30N 30°09' W 093°20'2 3.0
2018-May-13 23:00N 30°10' W 093°19'2 3.1
2018-May-13 22:30N 30°11' W 093°18'2 3.4
2018-May-13 22:00N 30°12' W 093°17'1 2.9
2018-May-13 21:30N 30°13' W 093°16'1 1.1
2018-May-13 21:00N 30°14' W 093°15'0 0.0
2018-May-13 20:30N 30°14' W 093°15'0 0.0
2018-May-13 20:00N 30°14' W 093°15'0 0.0
2018-May-13 19:30N 30°14' W 093°15'0 0.0
2018-May-13 19:00N 30°14' W 093°15'0 0.0
2018-May-13 18:30N 30°14' W 093°15'0 0.0
2018-May-13 18:00N 30°14' W 093°15'0 0.0
2018-May-13 17:30N 30°14' W 093°15'0 0.0
2018-May-13 16:58N 30°14' W 093°15'0 0.0
2018-May-13 16:30N 30°14' W 093°15'0 0.0
2018-May-13 16:00N 30°14' W 093°15'0 0.0
2018-May-13 15:27N 30°14' W 093°15'0 0.0
2018-May-13 15:00N 30°14' W 093°15'0 0.0
2018-May-13 14:30N 30°14' W 093°15'0 0.0
2018-May-13 14:00N 30°14' W 093°15'0 0.0
2018-May-13 13:30N 30°14' W 093°15'0 0.3
2018-May-13 13:00N 30°14' W 093°15'2 4.3
2018-May-13 12:30N 30°12' W 093°17'3 5.0
2018-May-13 12:00N 30°10' W 093°19'2 4.8
2018-May-13 11:30N 30°08' W 093°20'2 4.6
2018-May-13 11:00N 30°06' W 093°20'2 3.7
2018-May-13 10:30N 30°04' W 093°21'1 2.0
2018-May-13 10:00N 30°04' W 093°21'0 0.3
2018-May-13 09:30N 30°04' W 093°21'0 0.0
2018-May-13 09:00N 30°04' W 093°21'0 0.0
2018-May-13 08:30N 30°04' W 093°21'0 0.0
2018-May-13 08:00N 30°04' W 093°21'0 0.0
2018-May-13 07:29N 30°04' W 093°21'0 0.0
2018-May-13 07:00N 30°04' W 093°21'0 0.0
2018-May-13 06:29N 30°04' W 093°21'0 0.0
2018-May-13 06:00N 30°04' W 093°21'0 0.0
2018-May-13 05:29N 30°04' W 093°21'0 0.0
2018-May-13 05:00N 30°04' W 093°21'0 0.0
2018-May-13 04:30N 30°04' W 093°21'0 0.0
2018-May-13 04:00N 30°04' W 093°21'0 0.0
2018-May-13 03:30N 30°04' W 093°21'0 0.0
2018-May-13 03:00N 30°04' W 093°21'0 0.0
2018-May-13 02:30N 30°04' W 093°21'0 0.0
2018-May-13 02:00N 30°04' W 093°21'0 0.0
2018-May-13 01:30N 30°04' W 093°21'0 0.0
2018-May-13 01:00N 30°04' W 093°21'0 0.0
2018-May-13 00:30N 30°04' W 093°21'0 0.0
2018-May-13 00:00N 30°04' W 093°21'0 0.4
2018-May-12 23:30N 30°04' W 093°22'0 0.3
2018-May-12 23:00N 30°04' W 093°22'0 0.8
2018-May-12 22:30N 30°04' W 093°21'0 0.0
2018-May-12 22:00N 30°04' W 093°21'0 0.0
2018-May-12 21:30N 30°04' W 093°21'0 0.3
2018-May-12 21:00N 30°04' W 093°21'0 0.2
2018-May-12 20:30N 30°04' W 093°21'0 0.4
2018-May-12 20:00N 30°04' W 093°21'0 0.1
2018-May-12 19:30N 30°04' W 093°21'0 0.0
2018-May-12 19:00N 30°04' W 093°21'0 0.0
2018-May-12 18:30N 30°04' W 093°21'0 0.0
2018-May-12 18:00N 30°04' W 093°21'0 0.0
2018-May-12 17:30N 30°04' W 093°21'0 0.0
2018-May-12 17:00N 30°04' W 093°21'0 0.1
2018-May-12 16:30N 30°04' W 093°21'0 0.0
2018-May-12 16:00N 30°04' W 093°21'0 0.1
2018-May-12 15:30N 30°04' W 093°21'0 0.0
2018-May-12 15:00N 30°04' W 093°21'0 0.0
2018-May-12 14:30N 30°04' W 093°21'0 0.0
2018-May-12 14:00N 30°04' W 093°21'0 0.0
2018-May-12 13:29N 30°04' W 093°21'0 0.0
2018-May-12 13:00N 30°04' W 093°21'0 0.0
2018-May-12 12:30N 30°04' W 093°21'0 0.5
2018-May-12 12:00N 30°04' W 093°21'2 4.3
2018-May-12 11:30N 30°05' W 093°20'4 5.2
2018-May-12 10:43N 30°10' W 093°19'2 5.6
2018-May-12 10:25N 30°11' W 093°18'2 5.2
2018-May-12 10:00N 30°12' W 093°17'1 1.6
2018-May-12 09:24N 30°13' W 093°17'1 3.0
2018-May-12 09:00N 30°12' W 093°17'3 6.2
2018-May-12 08:30N 30°10' W 093°19'3 5.9
2018-May-12 08:00N 30°07' W 093°20'3 5.3
2018-May-12 07:30N 30°04' W 093°20'1 2.2
2018-May-12 07:00N 30°04' W 093°21'0 0.0
2018-May-12 06:30N 30°04' W 093°21'0 0.0
2018-May-12 06:00N 30°04' W 093°21'0 0.0
2018-May-12 05:30N 30°04' W 093°21'0 0.0
2018-May-12 05:00N 30°04' W 093°21'0 0.0
2018-May-12 04:30N 30°04' W 093°21'0 0.0
2018-May-12 04:00N 30°04' W 093°21'0 0.0
2018-May-12 03:30N 30°04' W 093°21'0 0.0
2018-May-12 03:00N 30°04' W 093°21'0 0.0
2018-May-12 02:30N 30°04' W 093°21'0 0.0
2018-May-12 02:00N 30°04' W 093°21'0 0.0
2018-May-12 01:30N 30°04' W 093°21'0 0.0
2018-May-12 01:00N 30°04' W 093°21'0 0.0
2018-May-12 00:30N 30°04' W 093°21'0 0.0
2018-May-11 23:59N 30°04' W 093°21'0 0.0
2018-May-11 23:30N 30°04' W 093°21'0 0.0
2018-May-11 23:00N 30°04' W 093°21'0 0.0
2018-May-11 22:30N 30°04' W 093°21'0 0.0
2018-May-11 22:00N 30°04' W 093°21'0 0.0
2018-May-11 21:30N 30°04' W 093°21'0 0.0
2018-May-11 21:00N 30°04' W 093°21'0 0.0
2018-May-11 20:30N 30°04' W 093°21'0 0.0
2018-May-11 20:00N 30°04' W 093°21'0 0.0
2018-May-11 19:30N 30°04' W 093°21'0 0.0
2018-May-11 19:00N 30°04' W 093°21'0 0.0
2018-May-11 18:30N 30°04' W 093°21'0 0.0
2018-May-11 18:00N 30°04' W 093°21'0 0.0
2018-May-11 17:30N 30°04' W 093°21'0 0.0
2018-May-11 17:00N 30°04' W 093°21'0 0.0
2018-May-11 16:30N 30°04' W 093°21'0 0.0
2018-May-11 16:00N 30°04' W 093°21'0 0.0
2018-May-11 15:30N 30°04' W 093°21'0 0.0
2018-May-11 15:00N 30°04' W 093°21'0 0.0
2018-May-11 14:29N 30°04' W 093°21'0 0.0
2018-May-11 14:00N 30°04' W 093°21'0 0.0
2018-May-11 13:30N 30°04' W 093°21'0 0.0
2018-May-11 13:00N 30°04' W 093°21'0 0.0
2018-May-11 12:30N 30°04' W 093°21'0 0.0
2018-May-11 12:00N 30°04' W 093°21'0 0.0
2018-May-11 11:30N 30°04' W 093°21'0 0.0
2018-May-11 11:00N 30°04' W 093°21'0 0.0
2018-May-11 10:28N 30°04' W 093°21'0 0.0
2018-May-11 10:00N 30°04' W 093°21'0 0.0
2018-May-11 09:30N 30°04' W 093°21'0 0.0
2018-May-11 09:00N 30°04' W 093°21'0 0.0
2018-May-11 08:30N 30°04' W 093°21'0 0.0
2018-May-11 08:00N 30°04' W 093°21'0 0.0
2018-May-11 07:30N 30°04' W 093°21'0 0.0
2018-May-11 07:00N 30°04' W 093°21'0 0.0
2018-May-11 06:30N 30°04' W 093°21'0 0.0
2018-May-11 06:00N 30°04' W 093°21'0 0.0
2018-May-11 05:30N 30°04' W 093°21'0 0.0
2018-May-11 05:00N 30°04' W 093°21'0 0.0
2018-May-11 04:30N 30°04' W 093°21'0 0.0
2018-May-11 04:00N 30°04' W 093°21'0 0.0
2018-May-11 03:30N 30°04' W 093°21'0 0.0
2018-May-11 02:59N 30°04' W 093°21'0 0.0
2018-May-11 02:30N 30°04' W 093°21'0 0.0
2018-May-11 02:00N 30°04' W 093°21'0 0.0
2018-May-11 01:30N 30°04' W 093°21'0 0.0
2018-May-11 01:00N 30°04' W 093°21'0 0.0
2018-May-11 00:29N 30°04' W 093°21'0 0.0
2018-May-11 00:00N 30°04' W 093°21'0 0.0
2018-May-10 23:30N 30°04' W 093°21'0 0.0
2018-May-10 23:00N 30°04' W 093°21'0 0.0
2018-May-10 22:31N 30°04' W 093°21'0 0.0
2018-May-10 22:01N 30°04' W 093°21'0 0.0
2018-May-10 21:30N 30°04' W 093°21'0 0.0
2018-May-10 21:01N 30°04' W 093°21'0 0.0
2018-May-10 20:31N 30°04' W 093°21'0 0.0
2018-May-10 20:01N 30°04' W 093°21'0 0.0
2018-May-10 19:31N 30°04' W 093°21'0 0.0
2018-May-10 19:01N 30°04' W 093°21'1 1.4
2018-May-10 18:30N 30°04' W 093°21'2 4.5
2018-May-10 18:01N 30°06' W 093°20'3 5.7
2018-May-10 17:31N 30°09' W 093°20'3 5.6
2018-May-10 17:01N 30°11' W 093°18'3 5.5
2018-May-10 16:31N 30°13' W 093°16'1 1.8
2018-May-10 15:58N 30°14' W 093°15'0 0.0
2018-May-10 15:27N 30°14' W 093°15'0 0.0
2018-May-10 15:01N 30°14' W 093°15'0 0.0
2018-May-10 14:31N 30°14' W 093°15'0 0.0
2018-May-10 14:00N 30°14' W 093°15'0 0.0
2018-May-10 13:30N 30°14' W 093°15'0 0.0
2018-May-10 12:59N 30°14' W 093°15'0 0.0
2018-May-10 12:30N 30°14' W 093°15'0 0.0
2018-May-10 12:00N 30°14' W 093°15'0 0.0
2018-May-10 11:31N 30°14' W 093°15'0 0.0
2018-May-10 11:00N 30°14' W 093°15'0 0.0
2018-May-10 10:29N 30°14' W 093°15'0 0.0
2018-May-10 10:01N 30°14' W 093°15'0 0.0
2018-May-10 09:30N 30°14' W 093°15'0 0.0
2018-May-10 08:58N 30°14' W 093°15'0 0.0
2018-May-10 08:31N 30°14' W 093°15'0 0.0
2018-May-10 07:59N 30°14' W 093°15'0 0.0
2018-May-10 07:31N 30°14' W 093°15'0 0.0
2018-May-10 07:01N 30°14' W 093°15'0 0.0
2018-May-10 06:30N 30°14' W 093°15'0 0.0
2018-May-10 06:00N 30°14' W 093°15'0 0.0
2018-May-10 05:30N 30°14' W 093°15'2 4.4
2018-May-10 05:00N 30°12' W 093°17'3 6.5
2018-May-10 04:30N 30°10' W 093°19'3 6.2
2018-May-10 04:00N 30°07' W 093°20'3 5.6
2018-May-10 03:31N 30°04' W 093°21'1 1.4
2018-May-10 03:01N 30°04' W 093°22'0 0.0
2018-May-10 02:31N 30°04' W 093°22'0 0.4
2018-May-10 02:01N 30°04' W 093°21'0 0.0
2018-May-10 01:31N 30°04' W 093°21'0 0.0
2018-May-10 01:01N 30°04' W 093°21'0 0.0
2018-May-10 00:30N 30°04' W 093°21'  

Dump ship's entire track history